Rothenburg o. d. T. Airport EDFR

Flugplatz Daten

Name: Rothenburg o. d. T. Airport

Ident: EDFR

Lat: 49,38833237

Long: 10,21805573

Platzhöhe: 1309 ft

IataCode:

City: Rothenburg ob der Tauber

Metar

2017/05/24 21:49
MMRX 242149Z 18005KT 10SM SKC 30/04 A2979 RMK HZY FU PREDFR

Taf

Gewünschte Webcam nicht vorhanden? Dann fügen Sie eine hinzu. Sie wird dann so schnell wie möglich freigeschaltet
Url: Title: